Potomac — WBF7534 — position and weather

sailwx.info

Track history (hours):
 
Tides and Currents Weather Stations Pressure Air Temp Water Temp Dewpoint Dewpoint Depression Visibility Wind Speed Wind Dir Waves Ship Positions

Potomac

Owner: POTOMAC ASSOCIATION, OAKLAND, CA. More information available from US FCC via Universal Licensing System and Coast Guard Vessel Documentation Center.

Last reported at 2016-Jan-21 00:34 UTC. Time now 2016-Feb-09 20:36 UTC.
Position N 37°48' W 122°18'.
Warning: this ship's position is 19 days out of date.

Length 51 m; draft 3.1 m.

MMSI: 367166810.

Date/timePositionNaut miles runAvg speedWind from/ knotsBaromVisibWave heightAir tempDewpointWater temp
2016-Jan-21 00:34N 37°48' W 122°18'4 3.6
2016-Jan-20 23:34N 37°50' W 122°21'0 0.0
2016-Jan-20 22:34N 37°50' W 122°21'0 0.0
2016-Jan-20 21:33N 37°50' W 122°21'0 0.0
2016-Jan-20 20:33N 37°50' W 122°21'0 0.0
2016-Jan-20 19:34N 37°50' W 122°21'0 0.5
2016-Jan-20 18:33N 37°49' W 122°22'0 0.1
2016-Jan-20 17:33N 37°49' W 122°22'0 0.0
2016-Jan-20 16:33N 37°49' W 122°22'2 1.6
2016-Jan-20 15:34N 37°48' W 122°20'3 2.8
2016-Jan-20 14:33N 37°48' W 122°17'0 0.0
2016-Jan-19 19:33N 37°48' W 122°17'  
Track history (hours):
 
Tides and Currents Weather Stations Pressure Air Temp Water Temp Dewpoint Dewpoint Depression Visibility Wind Speed Wind Dir Waves Ship Positions

Potomac

Owner: POTOMAC ASSOCIATION, OAKLAND, CA. More information available from US FCC via Universal Licensing System and Coast Guard Vessel Documentation Center.

Last reported at 2016-Jan-21 00:34 UTC. Time now 2016-Feb-09 20:36 UTC.
Position N 37°48' W 122°18'.
Warning: this ship's position is 19 days out of date.

Length 51 m; draft 3.1 m.

MMSI: 367166810.

Date/timePositionNaut miles runAvg speedWind from/ knotsBaromVisibWave heightAir tempDewpointWater temp
2016-Jan-21 00:34N 37°48' W 122°18'4 3.6
2016-Jan-20 23:34N 37°50' W 122°21'0 0.0
2016-Jan-20 22:34N 37°50' W 122°21'0 0.0
2016-Jan-20 21:33N 37°50' W 122°21'0 0.0
2016-Jan-20 20:33N 37°50' W 122°21'0 0.0
2016-Jan-20 19:34N 37°50' W 122°21'0 0.5
2016-Jan-20 18:33N 37°49' W 122°22'0 0.1
2016-Jan-20 17:33N 37°49' W 122°22'0 0.0
2016-Jan-20 16:33N 37°49' W 122°22'2 1.6
2016-Jan-20 15:34N 37°48' W 122°20'3 2.8
2016-Jan-20 14:33N 37°48' W 122°17'0 0.0
2016-Jan-19 19:33N 37°48' W 122°17'  

Dump ship's entire track history